Airport View

Enter AWOS ICAO identifier for current METAR.

ex. KFNL

KEQA 080545Z AUTO 16013G20KT 10SM CLR 26/23 A2996 RMK AO2

8 Aug 2020 05:49

Frequency: 120.875

Phone: 316-322-8095

Other Area AWOS: K3AU - K1K1 - KAAO - KBEC

TAF KIAB 080200Z 0802/0908 18015KT 9999 SCT250 WS020/19040KT QNH2993INS BECMG 0812/0813 18012KT 9999 FEW080 FEW200 QNH2996INS BECMG 0817/0818 19012G22KT 9999 FEW200 QNH2992INS BECMG 0823/0824 19012KT 9999 SCT230 QNH2994INS TX37/0821Z TN23/0811Z